Time;durP1;ratioP1;P1;durP2;ratioP2;P2;SDS_P1;SDS_P2;PMS_P1;PMS_P2;Temp;Humidity;BMP_temperature;BMP_pressure;BME280_temperature;BME280_humidity;BME280_pressure;Samples;Min_cycle;Max_cycle;Signal;HPM_P1;HPM_P2
2022/08/19 00:01:38;;;;;;;35.63;31.83;;;21.40;99.90;;;;;;5044395;28;20035;-74
2022/08/19 00:04:07;;;;;;;39.03;35.17;;;21.40;99.90;;;;;;5052715;28;20036;-74
2022/08/19 00:06:35;;;;;;;37.75;33.78;;;21.40;99.90;;;;;;5029744;28;20025;-74
2022/08/19 00:09:03;;;;;;;38.67;34.90;;;21.30;99.90;;;;;;5046960;28;20075;-74
2022/08/19 00:11:29;;;;;;;37.63;33.88;;;21.30;99.90;;;;;;5044491;28;20025;-74
2022/08/19 00:13:56;;;;;;;37.63;34.03;;;21.30;99.90;;;;;;5041846;28;20036;-74
2022/08/19 00:16:23;;;;;;;38.75;34.72;;;21.20;99.90;;;;;;5048815;28;20049;-74
2022/08/19 00:18:49;;;;;;;37.45;33.67;;;21.20;99.90;;;;;;5043634;28;20022;-74
2022/08/19 00:21:15;;;;;;;37.50;33.67;;;21.20;99.90;;;;;;5055813;28;20389;-74
2022/08/19 00:23:42;;;;;;;33.70;30.30;;;21.20;99.90;;;;;;5055771;28;20021;-74
2022/08/19 00:26:09;;;;;;;36.08;32.40;;;21.10;99.90;;;;;;5049791;28;20023;-74
2022/08/19 00:28:35;;;;;;;37.85;34.10;;;21.20;99.90;;;;;;5052347;28;20104;-74
2022/08/19 00:31:04;;;;;;;35.70;32.17;;;21.10;99.90;;;;;;5059090;28;20051;-74
2022/08/19 00:33:33;;;;;;;38.35;34.35;;;21.10;99.90;;;;;;5049578;28;20024;-74
2022/08/19 00:36:04;;;;;;;34.28;30.58;;;21.00;99.90;;;;;;5043655;28;20017;-74
2022/08/19 00:38:30;;;;;;;34.85;31.48;;;21.10;99.90;;;;;;5028842;28;20112;-74
2022/08/19 00:40:56;;;;;;;34.33;29.58;;;21.00;99.90;;;;;;5040875;28;20116;-74
2022/08/19 00:43:25;;;;;;;33.85;30.25;;;21.00;99.90;;;;;;5039309;28;20033;-73
2022/08/19 00:45:51;;;;;;;33.70;30.27;;;20.90;99.90;;;;;;5036479;28;20016;-73
2022/08/19 00:48:17;;;;;;;33.47;30.23;;;20.90;99.90;;;;;;5043188;28;20108;-73
2022/08/19 00:50:44;;;;;;;32.75;29.55;;;20.90;99.90;;;;;;5028087;28;20104;-73
2022/08/19 00:53:14;;;;;;;35.08;31.52;;;20.90;99.90;;;;;;5041091;28;20036;-73
2022/08/19 00:55:43;;;;;;;32.42;28.98;;;20.90;99.90;;;;;;5034030;28;20042;-73
2022/08/19 00:58:14;;;;;;;33.90;30.02;;;20.90;99.90;;;;;;5042875;28;20025;-73
2022/08/19 01:00:40;;;;;;;34.35;30.90;;;20.80;99.90;;;;;;5044802;28;20017;-73
2022/08/19 01:03:12;;;;;;;36.03;32.17;;;20.80;99.90;;;;;;5026424;28;20044;-73
2022/08/19 01:05:40;;;;;;;33.60;29.95;;;20.80;99.90;;;;;;5043165;28;20021;-74
2022/08/19 01:08:07;;;;;;;36.28;32.47;;;20.70;99.90;;;;;;5042956;28;20104;-73
2022/08/19 01:10:46;;;;;;;39.60;34.67;;;20.60;99.90;;;;;;5041539;28;20022;-74
2022/08/19 01:13:15;;;;;;;40.33;35.90;;;20.60;99.90;;;;;;5029133;28;20417;-73
2022/08/19 01:15:56;;;;;;;37.00;33.10;;;20.60;99.90;;;;;;5041465;28;20025;-73
2022/08/19 01:18:23;;;;;;;37.88;33.80;;;20.60;99.90;;;;;;5032927;28;20073;-72
2022/08/19 01:20:50;;;;;;;38.10;33.08;;;20.60;99.90;;;;;;5043710;28;20037;-74
2022/08/19 01:23:16;;;;;;;32.15;28.33;;;20.60;99.90;;;;;;5043065;28;20045;-74
2022/08/19 01:25:46;;;;;;;34.65;30.95;;;20.60;99.90;;;;;;5027774;28;20028;-73
2022/08/19 01:28:29;;;;;;;35.92;31.80;;;20.60;99.90;;;;;;5044987;28;20029;-74
2022/08/19 01:30:55;;;;;;;34.13;30.27;;;20.60;99.90;;;;;;5047395;28;20033;-73
2022/08/19 01:33:21;;;;;;;39.78;33.13;;;20.60;99.90;;;;;;5042404;28;20427;-73
2022/08/19 01:35:50;;;;;;;36.05;32.20;;;20.60;99.90;;;;;;5044980;28;20029;-73
2022/08/19 01:38:28;;;;;;;36.88;31.13;;;20.50;99.90;;;;;;5047465;28;20172;-73
2022/08/19 01:40:53;;;;;;;34.65;30.52;;;20.50;99.90;;;;;;5052173;28;20127;-74
2022/08/19 01:43:19;;;;;;;39.42;31.23;;;20.50;99.90;;;;;;5039731;28;20117;-73
2022/08/19 01:45:46;;;;;;;32.97;29.38;;;20.50;99.90;;;;;;5045778;28;20021;-73
2022/08/19 01:48:13;;;;;;;32.67;29.17;;;20.50;99.90;;;;;;5032188;28;20392;-73
2022/08/19 01:50:39;;;;;;;37.85;31.38;;;20.50;99.90;;;;;;5047151;28;20108;-73
2022/08/19 01:53:09;;;;;;;35.20;31.42;;;20.50;99.90;;;;;;5043601;28;20475;-73
2022/08/19 01:55:38;;;;;;;34.58;29.05;;;20.40;99.90;;;;;;5041416;28;20033;-73
2022/08/19 01:58:06;;;;;;;31.58;28.17;;;20.40;99.90;;;;;;5049296;28;20417;-73
2022/08/19 02:00:32;;;;;;;34.10;27.65;;;20.40;99.90;;;;;;5045405;28;20082;-73
2022/08/19 02:02:58;;;;;;;37.35;30.45;;;20.40;99.90;;;;;;5047489;28;20535;-73
2022/08/19 02:05:24;;;;;;;33.55;29.92;;;20.30;99.90;;;;;;5037033;28;20029;-73
2022/08/19 02:07:50;;;;;;;36.55;30.48;;;20.30;99.90;;;;;;5042733;28;20037;-73
2022/08/19 02:10:21;;;;;;;39.63;33.05;;;20.30;99.90;;;;;;5029508;28;20021;-73
2022/08/19 02:12:49;;;;;;;39.97;34.20;;;20.30;99.90;;;;;;5042175;28;20543;-73
2022/08/19 02:15:15;;;;;;;38.75;33.50;;;20.30;99.90;;;;;;5027909;28;20477;-73
2022/08/19 02:17:41;;;;;;;39.88;32.15;;;20.30;99.90;;;;;;5042254;28;20028;-73
2022/08/19 02:20:08;;;;;;;43.42;34.47;;;20.30;99.90;;;;;;5025679;28;20028;-73
2022/08/19 02:22:35;;;;;;;41.33;33.60;;;20.30;99.90;;;;;;5047659;28;20048;-73
2022/08/19 02:25:01;;;;;;;39.92;34.08;;;20.20;99.90;;;;;;5052362;28;20086;-73
2022/08/19 02:27:27;;;;;;;40.83;33.30;;;20.20;99.90;;;;;;5049080;28;20028;-73
2022/08/19 02:29:52;;;;;;;40.58;33.03;;;20.20;99.90;;;;;;5048705;28;20033;-72
2022/08/19 02:32:19;;;;;;;41.88;33.75;;;20.20;99.90;;;;;;5051760;28;20095;-73
2022/08/19 02:34:46;;;;;;;44.08;33.67;;;20.20;99.90;;;;;;5045349;28;20478;-73
2022/08/19 02:39:56;;;;;;;43.03;32.85;;;20.20;99.90;;;;;;5046341;28;20059;-73
2022/08/19 02:42:22;;;;;;;42.22;33.90;;;20.10;99.90;;;;;;5048126;28;20050;-73
2022/08/19 02:44:48;;;;;;;39.17;32.17;;;20.10;99.90;;;;;;5048684;28;20493;-72
2022/08/19 02:47:14;;;;;;;39.10;32.92;;;20.10;99.90;;;;;;5047100;28;20142;-72
2022/08/19 02:49:41;;;;;;;37.08;31.25;;;20.10;99.90;;;;;;5050398;28;20061;-72
2022/08/19 02:52:07;;;;;;;42.00;32.33;;;20.00;99.90;;;;;;5047167;28;20034;-72
2022/08/19 02:54:32;;;;;;;38.72;31.77;;;19.90;99.90;;;;;;5046129;28;20359;-72
2022/08/19 02:56:58;;;;;;;39.83;33.83;;;19.90;99.90;;;;;;5047408;28;20442;-72
2022/08/19 02:59:26;;;;;;;35.90;31.52;;;19.90;99.90;;;;;;5045827;28;20037;-72
2022/08/19 03:01:52;;;;;;;41.25;31.50;;;19.80;99.90;;;;;;5048350;28;20033;-72
2022/08/19 03:04:19;;;;;;;37.92;31.95;;;19.80;99.90;;;;;;5051624;28;20075;-72
2022/08/19 03:06:46;;;;;;;40.85;33.45;;;19.80;99.90;;;;;;5052931;28;20057;-72
2022/08/19 03:09:13;;;;;;;40.63;32.05;;;19.80;99.90;;;;;;5026187;28;20072;-72
2022/08/19 03:11:39;;;;;;;39.05;31.95;;;19.80;99.90;;;;;;5050862;28;20025;-72
2022/08/19 03:14:06;;;;;;;41.08;32.85;;;19.70;99.90;;;;;;5045816;28;20033;-72
2022/08/19 03:16:35;;;;;;;41.13;32.63;;;19.70;99.90;;;;;;5052214;28;20147;-72
2022/08/19 03:19:02;;;;;;;54.70;40.20;;;19.70;99.90;;;;;;5049009;28;20489;-72
2022/08/19 03:21:31;;;;;;;51.40;38.92;;;19.70;99.90;;;;;;5052221;28;20086;-72
2022/08/19 03:23:58;;;;;;;50.35;36.10;;;19.60;99.90;;;;;;5046280;28;20049;-72
2022/08/19 03:26:25;;;;;;;47.03;36.47;;;19.70;99.90;;;;;;5044026;28;20037;-72
2022/08/19 03:28:51;;;;;;;52.25;38.83;;;19.70;99.90;;;;;;5047702;28;20041;-72
2022/08/19 03:31:19;;;;;;;46.75;36.03;;;19.60;99.90;;;;;;5048599;28;20099;-72
2022/08/19 03:33:45;;;;;;;55.30;39.38;;;19.60;99.90;;;;;;5046919;28;20059;-72
2022/08/19 03:36:22;;;;;;;65.72;41.50;;;19.60;99.90;;;;;;5050942;28;20064;-72
2022/08/19 03:38:51;;;;;;;58.15;42.08;;;19.60;99.90;;;;;;5027577;28;20024;-72
2022/08/19 03:41:22;;;;;;;64.03;42.20;;;19.60;99.90;;;;;;5045767;28;20029;-72
2022/08/19 03:43:49;;;;;;;61.90;43.87;;;19.60;99.90;;;;;;5045411;28;20135;-72
2022/08/19 03:46:21;;;;;;;61.58;43.28;;;19.50;99.90;;;;;;5029627;28;20540;-72
2022/08/19 03:48:50;;;;;;;60.47;42.38;;;19.60;99.90;;;;;;5044724;28;20025;-72
2022/08/19 03:51:20;;;;;;;52.85;40.13;;;19.60;99.90;;;;;;5047672;28;20025;-72
2022/08/19 03:53:47;;;;;;;52.25;36.95;;;19.60;99.90;;;;;;5052072;28;20477;-72
2022/08/19 03:56:13;;;;;;;62.50;43.38;;;19.60;99.90;;;;;;5047477;28;20025;-72
2022/08/19 03:58:40;;;;;;;58.60;40.92;;;19.50;99.90;;;;;;5028718;28;20028;-71
2022/08/19 04:01:12;;;;;;;63.03;44.35;;;19.50;99.90;;;;;;5041399;28;20032;-72
2022/08/19 04:03:39;;;;;;;61.72;43.13;;;19.50;99.90;;;;;;5042887;28;20036;-72
2022/08/19 04:06:17;;;;;;;65.10;42.55;;;19.50;99.90;;;;;;5044994;28;20057;-72
2022/08/19 04:08:45;;;;;;;63.80;41.25;;;19.50;99.90;;;;;;5041966;28;20029;-71
2022/08/19 04:11:17;;;;;;;57.95;40.17;;;19.50;99.90;;;;;;5029358;28;20090;-72
2022/08/19 04:13:45;;;;;;;63.45;43.97;;;19.50;99.90;;;;;;5040581;28;20033;-72
2022/08/19 04:16:11;;;;;;;65.30;42.97;;;19.40;99.90;;;;;;5046313;28;20043;-72
2022/08/19 04:18:39;;;;;;;62.35;41.10;;;19.40;99.90;;;;;;5052178;28;20029;-72
2022/08/19 04:21:06;;;;;;;70.82;45.25;;;19.40;99.90;;;;;;5050124;28;20029;-72
2022/08/19 04:23:32;;;;;;;67.00;46.10;;;19.40;99.90;;;;;;5051943;28;20033;-72
2022/08/19 04:25:58;;;;;;;70.32;46.95;;;19.30;99.90;;;;;;5048170;28;20017;-72
2022/08/19 04:28:24;;;;;;;61.25;40.55;;;19.30;99.90;;;;;;5021105;28;20025;-71
2022/08/19 04:30:53;;;;;;;66.85;44.60;;;19.30;99.90;;;;;;5045498;28;20488;-71
2022/08/19 04:33:22;;;;;;;67.38;43.25;;;19.30;99.90;;;;;;5050296;28;20025;-71
2022/08/19 04:35:50;;;;;;;67.57;44.85;;;19.30;99.90;;;;;;5040959;28;20021;-71
2022/08/19 04:38:20;;;;;;;72.65;47.47;;;19.30;99.90;;;;;;5043668;28;20536;-71
2022/08/19 04:43:35;;;;;;;68.00;44.85;;;19.20;99.90;;;;;;5046992;28;20106;-71
2022/08/19 04:46:08;;;;;;;71.05;46.95;;;19.30;99.90;;;;;;5045626;28;20037;-71
2022/08/19 04:48:35;;;;;;;69.45;45.70;;;19.20;99.90;;;;;;5044962;28;20048;-72
2022/08/19 04:51:01;;;;;;;66.22;44.70;;;19.20;99.90;;;;;;5039347;28;20056;-71
2022/08/19 04:53:32;;;;;;;70.65;47.28;;;19.20;99.90;;;;;;5039458;28;20060;-71
2022/08/19 04:56:00;;;;;;;67.45;46.13;;;19.20;99.90;;;;;;5048512;28;20473;-71
2022/08/19 04:58:27;;;;;;;63.60;42.10;;;19.20;99.90;;;;;;5043475;28;20037;-71
2022/08/19 05:00:54;;;;;;;64.80;44.40;;;19.10;99.90;;;;;;5042084;28;20430;-71
2022/08/19 05:03:20;;;;;;;69.75;47.45;;;19.10;99.90;;;;;;5048944;28;20056;-71
2022/08/19 05:05:50;;;;;;;70.95;47.22;;;19.10;99.90;;;;;;5045707;28;20174;-71
2022/08/19 05:08:20;;;;;;;70.97;46.33;;;19.10;99.90;;;;;;5038875;28;20027;-71
2022/08/19 05:10:50;;;;;;;91.28;55.10;;;19.10;99.90;;;;;;5047868;28;20024;-71
2022/08/19 05:13:18;;;;;;;82.15;50.90;;;19.10;99.90;;;;;;5044861;28;20037;-71
2022/08/19 05:15:53;;;;;;;87.70;51.08;;;19.10;99.90;;;;;;5052455;28;20032;-71
2022/08/19 05:23:55;;;;;;;78.13;48.55;;;19.10;99.90;;;;;;5040642;28;20076;-71
2022/08/19 05:26:20;;;;;;;77.95;48.00;;;19.20;99.90;;;;;;5045487;28;20064;-72
2022/08/19 05:28:47;;;;;;;77.85;47.72;;;19.20;99.90;;;;;;5040685;28;20021;-71
2022/08/19 05:31:13;;;;;;;76.68;47.22;;;19.20;99.90;;;;;;5045185;28;20080;-72
2022/08/19 05:33:39;;;;;;;80.63;50.33;;;19.20;99.90;;;;;;5039358;28;20075;-71
2022/08/19 05:36:07;;;;;;;83.05;49.17;;;19.20;99.90;;;;;;5041638;28;20044;-72
2022/08/19 05:38:35;;;;;;;89.63;52.47;;;19.20;99.90;;;;;;5042645;28;20020;-72
2022/08/19 05:41:05;;;;;;;91.07;51.65;;;19.30;99.90;;;;;;5048394;28;20039;-72
2022/08/19 05:43:31;;;;;;;86.30;51.85;;;19.20;99.90;;;;;;5035393;28;20052;-72
2022/08/19 05:45:56;;;;;;;82.53;50.58;;;19.30;99.90;;;;;;5042637;28;20393;-72
2022/08/19 05:48:22;;;;;;;96.65;53.42;;;19.30;99.90;;;;;;5044360;28;20033;-71
2022/08/19 05:50:50;;;;;;;88.68;52.55;;;19.30;99.90;;;;;;5040979;28;20449;-72
2022/08/19 05:53:16;;;;;;;87.65;51.78;;;19.40;99.90;;;;;;5042819;28;20140;-72
2022/08/19 05:55:42;;;;;;;89.18;52.35;;;19.40;99.90;;;;;;5038185;28;20028;-72
2022/08/19 05:58:08;;;;;;;89.15;52.97;;;19.40;99.90;;;;;;5047409;28;20024;-71
2022/08/19 06:00:35;;;;;;;90.72;51.15;;;19.40;99.90;;;;;;5045079;28;20032;-70
2022/08/19 06:03:03;;;;;;;96.30;52.13;;;19.50;99.90;;;;;;5040685;28;20063;-71
2022/08/19 06:05:30;;;;;;;91.97;53.13;;;19.50;99.90;;;;;;5043035;28;20023;-69
2022/08/19 06:07:56;;;;;;;87.85;51.65;;;19.50;99.90;;;;;;5037095;28;20029;-69
2022/08/19 06:10:22;;;;;;;93.88;51.47;;;19.50;99.90;;;;;;5041778;28;20088;-69
2022/08/19 06:12:48;;;;;;;86.90;49.28;;;19.50;99.90;;;;;;5040543;28;20127;-70
2022/08/19 06:15:14;;;;;;;82.97;47.40;;;19.60;99.90;;;;;;5030063;28;20064;-70
2022/08/19 06:17:41;;;;;;;94.97;50.25;;;19.60;99.90;;;;;;5039849;28;20488;-69
2022/08/19 06:20:13;;;;;;;84.38;47.08;;;19.70;99.90;;;;;;5046034;28;20033;-74
2022/08/19 06:22:48;;;;;;;92.63;49.07;;;19.70;99.90;;;;;;5047295;28;20048;-73
2022/08/19 06:25:15;;;;;;;81.57;45.80;;;19.80;99.90;;;;;;5030159;28;20063;-77
2022/08/19 06:27:41;;;;;;;71.45;43.83;;;19.80;99.90;;;;;;5030779;28;20024;-74
2022/08/19 06:30:08;;;;;;;75.45;44.42;;;19.80;99.90;;;;;;5028203;28;20094;-75
2022/08/19 06:32:34;;;;;;;76.72;45.30;;;19.80;99.90;;;;;;5048468;28;20075;-74
2022/08/19 06:35:00;;;;;;;81.80;44.13;;;19.90;99.90;;;;;;5047917;28;20029;-72
2022/08/19 06:37:26;;;;;;;83.43;47.50;;;19.90;99.90;;;;;;5045451;28;20034;-75
2022/08/19 06:39:51;;;;;;;80.78;45.03;;;20.00;99.90;;;;;;5037091;28;20520;-74
2022/08/19 06:42:18;;;;;;;79.25;44.38;;;20.00;99.90;;;;;;5036832;28;20045;-73
2022/08/19 06:44:46;;;;;;;76.00;44.08;;;20.00;99.90;;;;;;5036820;28;20429;-74
2022/08/19 06:47:19;;;;;;;70.65;40.63;;;20.00;99.90;;;;;;5050263;28;20108;-74
2022/08/19 06:49:45;;;;;;;72.22;38.80;;;20.00;99.90;;;;;;5040862;28;20389;-74
2022/08/19 06:52:12;;;;;;;70.57;41.75;;;20.00;99.90;;;;;;5042559;28;20036;-75
2022/08/19 06:54:39;;;;;;;79.20;42.92;;;20.00;99.90;;;;;;5038109;28;20420;-74
2022/08/19 06:57:06;;;;;;;73.35;42.53;;;20.10;99.90;;;;;;5043648;28;20075;-74
2022/08/19 06:59:33;;;;;;;72.97;40.40;;;20.20;99.90;;;;;;5037685;28;20457;-73
2022/08/19 07:02:02;;;;;;;69.45;43.50;;;20.20;99.90;;;;;;5044787;28;20048;-75
2022/08/19 07:04:32;;;;;;;67.18;40.17;;;20.30;99.90;;;;;;5043616;28;20518;-74
2022/08/19 07:07:07;;;;;;;66.35;39.25;;;20.40;99.90;;;;;;5021598;28;20055;-75
2022/08/19 07:09:36;;;;;;;66.28;40.15;;;20.30;99.90;;;;;;5044059;28;20059;-73
2022/08/19 07:12:03;;;;;;;60.50;36.10;;;20.40;99.90;;;;;;5042343;28;20426;-74
2022/08/19 07:14:29;;;;;;;70.40;39.10;;;20.50;99.90;;;;;;5045460;28;20032;-74
2022/08/19 07:16:56;;;;;;;61.00;36.08;;;20.50;99.90;;;;;;5044593;28;20025;-75
2022/08/19 07:19:27;;;;;;;60.90;34.90;;;20.50;99.90;;;;;;5045185;28;20430;-74
2022/08/19 07:21:53;;;;;;;60.28;36.88;;;20.50;99.90;;;;;;5049639;28;20033;-74
2022/08/19 07:24:23;;;;;;;58.05;34.35;;;20.60;99.90;;;;;;5047202;28;20025;-74
2022/08/19 07:26:50;;;;;;;54.45;33.88;;;20.60;99.90;;;;;;5046041;28;20104;-74
2022/08/19 07:29:16;;;;;;;50.03;33.47;;;20.50;99.90;;;;;;5048818;28;20021;-74
2022/08/19 07:31:42;;;;;;;58.90;34.05;;;20.60;99.90;;;;;;5049548;28;20047;-72
2022/08/19 07:34:13;;;;;;;60.45;35.20;;;20.60;99.90;;;;;;5047153;28;20093;-72
2022/08/19 07:36:40;;;;;;;52.80;34.72;;;20.70;99.90;;;;;;5043650;28;20021;-72
2022/08/19 07:39:12;;;;;;;53.03;33.10;;;20.70;99.90;;;;;;5045992;28;20029;-72
2022/08/19 07:41:39;;;;;;;;;;;20.70;99.90;;;;;;5043612;28;20041;-72
2022/08/19 07:44:07;;;;;;;54.55;29.95;;;20.70;99.90;;;;;;5034133;28;19909;-73
2022/08/19 07:46:35;;;;;;;48.33;31.35;;;20.80;99.90;;;;;;5044230;28;20053;-72
2022/08/19 07:49:02;;;;;;;51.67;30.58;;;20.90;99.90;;;;;;5045527;28;21770;-72
2022/08/19 07:51:28;;;;;;;47.33;30.73;;;21.00;99.90;;;;;;5035158;28;20670;-74
2022/08/19 07:53:54;;;;;;;48.45;29.48;;;21.00;99.90;;;;;;5040299;28;20025;-72
2022/08/19 07:56:21;;;;;;;44.80;30.02;;;21.20;99.90;;;;;;5044673;28;20033;-72
2022/08/19 07:58:49;;;;;;;50.20;29.80;;;21.30;99.90;;;;;;5048102;28;20017;-72
2022/08/19 08:01:23;;;;;;;45.28;30.17;;;21.40;99.90;;;;;;5049190;28;20500;-73
2022/08/19 08:09:25;;;;;;;42.95;28.58;;;21.50;99.90;;;;;;5047442;28;20044;-72
2022/08/19 08:11:58;;;;;;;41.97;29.65;;;21.60;99.90;;;;;;5041935;28;20048;-72
2022/08/19 08:14:29;;;;;;;;;;;21.60;99.90;;;;;;5053047;28;20057;-73
2022/08/19 08:16:55;;;;;;;42.60;28.48;;;21.60;99.90;;;;;;5028524;28;19909;-74
2022/08/19 08:19:24;;;;;;;43.42;28.83;;;21.80;99.90;;;;;;5043482;28;20025;-71
2022/08/19 08:21:50;;;;;;;41.38;29.60;;;21.70;99.90;;;;;;5036795;28;20034;-73
2022/08/19 08:24:17;;;;;;;43.17;29.60;;;21.70;99.90;;;;;;5042758;28;20032;-72
2022/08/19 08:26:43;;;;;;;42.53;28.77;;;21.80;99.90;;;;;;5028908;28;20112;-74
2022/08/19 08:29:12;;;;;;;36.20;28.23;;;22.00;99.90;;;;;;5049180;28;20017;-71
2022/08/19 08:31:42;;;;;;;36.55;27.35;;;22.10;99.90;;;;;;5044531;28;20442;-71
2022/08/19 08:34:08;;;;;;;36.13;27.27;;;22.10;99.90;;;;;;5025990;28;20326;-71
2022/08/19 08:36:41;;;;;;;40.38;28.25;;;22.20;99.90;;;;;;5046908;28;20048;-73
2022/08/19 08:39:08;;;;;;;37.28;28.30;;;22.40;99.90;;;;;;5042597;28;21128;-72
2022/08/19 08:41:57;;;;;;;39.13;27.70;;;22.30;99.90;;;;;;5044033;28;20033;-71
2022/08/19 08:44:42;;;;;;;33.10;25.85;;;22.50;99.90;;;;;;5018534;28;20041;-72
2022/08/19 08:47:16;;;;;;;33.92;25.98;;;22.60;99.90;;;;;;5046398;28;20021;-72
2022/08/19 08:49:49;;;;;;;35.25;24.10;;;22.80;99.90;;;;;;5041964;28;20545;-72
2022/08/19 08:52:29;;;;;;;31.45;24.25;;;22.70;99.90;;;;;;5043776;28;20029;-72
2022/08/19 08:54:58;;;;;;;25.63;21.08;;;22.60;99.90;;;;;;5044301;28;20811;-72
2022/08/19 08:57:54;;;;;;;28.92;21.05;;;22.70;99.90;;;;;;5042952;28;20571;-73
2022/08/19 09:00:40;;;;;;;23.95;19.02;;;22.90;99.90;;;;;;5046496;28;20032;-72
2022/08/19 09:03:27;;;;;;;24.13;19.23;;;23.00;99.90;;;;;;5043434;28;20066;-72
2022/08/19 09:06:11;;;;;;;24.77;18.10;;;23.00;99.90;;;;;;5049134;28;20013;-72
2022/08/19 09:08:36;;;;;;;21.52;14.57;;;22.90;99.90;;;;;;5042065;28;20044;-72
2022/08/19 09:11:12;;;;;;;16.92;12.10;;;22.90;99.90;;;;;;5040666;28;20046;-71
2022/08/19 09:14:13;;;;;;;16.48;10.43;;;23.20;99.90;;;;;;5046936;28;20033;-72
2022/08/19 09:16:40;;;;;;;15.23;10.50;;;23.50;99.90;;;;;;5033354;28;20032;-72
2022/08/19 09:19:07;;;;;;;24.98;16.08;;;23.70;99.90;;;;;;5041602;28;20094;-73
2022/08/19 09:21:34;;;;;;;19.58;12.90;;;23.70;99.90;;;;;;5025850;28;20043;-72
2022/08/19 09:24:00;;;;;;;15.10;11.20;;;23.90;99.90;;;;;;5026147;28;20029;-72
2022/08/19 09:26:27;;;;;;;11.80;10.27;;;23.90;99.90;;;;;;5040712;28;20482;-72
2022/08/19 09:28:54;;;;;;;18.08;10.70;;;23.80;99.90;;;;;;5044717;28;20028;-72
2022/08/19 09:31:23;;;;;;;11.45;8.38;;;23.80;99.90;;;;;;5044054;28;20029;-72
2022/08/19 09:33:49;;;;;;;14.32;9.50;;;24.00;99.90;;;;;;5048337;28;20035;-73
2022/08/19 09:36:18;;;;;;;17.30;9.57;;;24.10;99.90;;;;;;5046314;28;20025;-73
2022/08/19 09:38:44;;;;;;;12.98;7.85;;;24.20;99.90;;;;;;5041843;28;20435;-73
2022/08/19 09:41:16;;;;;;;11.48;7.53;;;24.30;99.90;;;;;;5039813;28;20074;-72
2022/08/19 09:43:45;;;;;;;9.73;7.22;;;24.50;99.90;;;;;;5042408;28;20359;-72
2022/08/19 09:46:11;;;;;;;12.98;7.38;;;24.70;99.90;;;;;;5045921;28;20028;-73
2022/08/19 09:48:38;;;;;;;10.52;8.02;;;24.90;99.90;;;;;;5027681;28;20036;-72
2022/08/19 09:51:15;;;;;;;15.05;8.02;;;25.00;99.90;;;;;;5041792;28;20099;-73
2022/08/19 09:53:42;;;;;;;13.48;7.85;;;24.80;99.90;;;;;;5048609;28;20389;-72
2022/08/19 09:56:09;;;;;;;12.50;7.25;;;24.80;99.90;;;;;;5047989;28;20496;-72
2022/08/19 09:58:35;;;;;;;10.40;6.45;;;24.80;99.90;;;;;;5032873;28;20025;-73
2022/08/19 10:01:02;;;;;;;13.10;6.75;;;25.00;99.90;;;;;;5045530;28;20500;-73
2022/08/19 10:03:29;;;;;;;13.25;7.10;;;25.20;99.90;;;;;;5037925;28;20240;-72
2022/08/19 10:05:56;;;;;;;11.35;7.03;;;25.30;99.90;;;;;;5044418;28;20104;-73
2022/08/19 10:08:25;;;;;;;11.05;7.35;;;25.30;99.90;;;;;;5024283;28;20039;-73
2022/08/19 10:10:51;;;;;;;9.27;7.57;;;25.10;99.90;;;;;;5043491;28;20473;-73
2022/08/19 10:13:23;;;;;;;10.48;6.88;;;25.10;99.90;;;;;;5046590;28;20041;-72
2022/08/19 10:15:52;;;;;;;7.57;6.37;;;25.20;99.90;;;;;;5045817;28;20028;-73
2022/08/19 10:18:20;;;;;;;9.77;6.50;;;25.20;99.90;;;;;;5039165;28;20481;-73
2022/08/19 10:20:48;;;;;;;8.10;6.35;;;25.50;99.90;;;;;;5043536;28;20087;-71
2022/08/19 10:23:15;;;;;;;10.38;6.85;;;25.60;99.90;;;;;;5041780;28;20061;-71
2022/08/19 10:25:42;;;;;;;12.90;8.25;;;25.90;99.90;;;;;;5042755;28;20013;-71
2022/08/19 10:28:11;;;;;;;13.38;8.77;;;26.00;99.90;;;;;;5044874;28;20036;-71
2022/08/19 10:30:37;;;;;;;9.18;7.80;;;26.10;99.90;;;;;;5038977;28;20397;-71
2022/08/19 10:33:03;;;;;;;15.02;8.48;;;26.20;99.90;;;;;;5044636;28;20029;-73
2022/08/19 10:35:29;;;;;;;9.25;7.35;;;26.00;99.90;;;;;;5039008;28;20083;-74
2022/08/19 10:37:58;;;;;;;11.15;8.70;;;25.80;99.90;;;;;;5044219;28;20025;-72
2022/08/19 10:40:26;;;;;;;11.45;8.15;;;25.60;99.90;;;;;;5044002;28;20107;-72
2022/08/19 10:42:53;;;;;;;8.85;7.95;;;25.50;99.90;;;;;;5043643;28;20049;-71
2022/08/19 10:45:18;;;;;;;12.13;8.90;;;25.40;99.90;;;;;;5042475;28;20079;-72
2022/08/19 10:47:44;;;;;;;11.13;8.63;;;25.40;99.90;;;;;;5050920;28;20424;-72
2022/08/19 10:52:54;;;;;;;14.82;8.48;;;25.50;99.90;;;;;;5042839;28;20049;-72
2022/08/19 10:58:12;;;;;;;13.38;8.73;;;25.50;99.90;;;;;;5054704;28;20559;-72
2022/08/19 11:00:38;;;;;;;10.93;8.10;;;25.50;99.90;;;;;;5061395;28;20373;-71
2022/08/19 11:03:04;;;;;;;11.32;8.73;;;25.60;99.90;;;;;;5051505;28;20037;-71
2022/08/19 11:05:30;;;;;;;9.80;8.05;;;25.70;99.90;;;;;;5060027;28;20099;-72
2022/08/19 11:07:55;;;;;;;10.27;9.15;;;25.70;99.90;;;;;;5052816;28;20480;-72
2022/08/19 11:10:21;;;;;;;10.07;8.32;;;25.70;99.90;;;;;;5050878;28;20104;-72
2022/08/19 11:12:47;;;;;;;10.95;8.95;;;25.80;99.90;;;;;;5058052;28;20028;-72
2022/08/19 11:15:13;;;;;;;9.43;7.78;;;25.90;99.90;;;;;;5047334;28;20033;-70
2022/08/19 11:17:41;;;;;;;9.27;7.70;;;26.00;99.90;;;;;;5048003;28;20078;-73
2022/08/19 11:20:07;;;;;;;15.68;8.40;;;26.10;99.90;;;;;;5036432;28;20040;-72
2022/08/19 11:22:33;;;;;;;11.60;8.43;;;26.20;99.90;;;;;;5040553;28;20167;-72
2022/08/19 11:24:59;;;;;;;8.63;7.70;;;26.30;99.90;;;;;;5049060;28;20025;-71
2022/08/19 11:27:25;;;;;;;12.00;6.78;;;26.20;99.90;;;;;;5035911;28;20036;-72
2022/08/19 11:29:52;;;;;;;8.00;6.47;;;26.40;99.90;;;;;;5047546;28;20798;-70
2022/08/19 11:32:18;;;;;;;10.43;8.02;;;26.80;99.90;;;;;;5049529;28;20527;-72
2022/08/19 11:34:43;;;;;;;12.90;8.40;;;26.90;99.90;;;;;;5046836;28;20033;-73
2022/08/19 11:37:09;;;;;;;10.25;8.25;;;26.70;99.90;;;;;;5050684;28;20032;-72
2022/08/19 11:39:36;;;;;;;14.13;8.43;;;26.90;99.90;;;;;;5041700;28;20036;-73
2022/08/19 11:42:55;;;;;;;9.43;6.90;;;26.70;99.90;;;;;;5047439;28;20124;-73
2022/08/19 11:44:50;;;;;;;9.73;8.18;;;26.50;99.90;;;;;;5045394;28;20535;-74
2022/08/19 11:47:16;;;;;;;11.52;9.63;;;26.30;99.90;;;;;;5050426;28;20029;-71
2022/08/19 11:49:42;;;;;;;11.30;10.13;;;26.20;99.90;;;;;;5045868;28;20025;-71
2022/08/19 11:52:08;;;;;;;14.70;10.60;;;26.10;99.90;;;;;;5043915;28;20469;-71
2022/08/19 11:54:34;;;;;;;14.18;11.32;;;26.10;99.90;;;;;;5047704;28;20092;-71
2022/08/19 11:57:02;;;;;;;16.45;12.65;;;26.20;99.90;;;;;;5041757;28;20029;-72
2022/08/19 11:59:29;;;;;;;15.40;11.40;;;26.10;99.90;;;;;;5042479;28;20036;-72
2022/08/19 12:01:55;;;;;;;14.82;11.13;;;26.10;99.90;;;;;;5041258;28;20040;-71
2022/08/19 12:04:21;;;;;;;16.17;11.40;;;26.00;99.90;;;;;;5042283;28;20036;-70
2022/08/19 12:06:47;;;;;;;15.00;11.88;;;26.10;99.90;;;;;;5043530;28;20029;-71
2022/08/19 12:09:14;;;;;;;15.32;12.45;;;26.00;99.90;;;;;;5047277;28;20067;-71
2022/08/19 12:11:40;;;;;;;15.70;11.18;;;26.00;99.90;;;;;;5048810;28;20025;-71
2022/08/19 12:14:09;;;;;;;14.45;11.30;;;26.00;99.90;;;;;;5041139;28;20036;-70
2022/08/19 12:16:34;;;;;;;52.38;14.68;;;25.90;99.90;;;;;;5037882;28;20052;-70
2022/08/19 12:19:03;;;;;;;15.73;11.30;;;26.00;99.90;;;;;;5042641;28;20061;-70
2022/08/19 12:21:31;;;;;;;13.45;9.38;;;25.90;99.90;;;;;;5042411;28;20087;-70
2022/08/19 12:23:59;;;;;;;14.30;9.82;;;25.90;99.90;;;;;;5048288;28;20503;-73
2022/08/19 12:26:26;;;;;;;11.75;9.15;;;25.90;99.90;;;;;;5046742;28;20025;-71
2022/08/19 12:28:52;;;;;;;12.65;9.43;;;26.00;99.90;;;;;;5048376;28;20098;-71
2022/08/19 12:31:19;;;;;;;12.65;8.95;;;25.90;99.90;;;;;;5044178;28;20078;-71
2022/08/19 12:33:46;;;;;;;11.65;8.82;;;25.80;99.90;;;;;;5044928;28;20032;-71
2022/08/19 12:36:14;;;;;;;11.75;7.80;;;25.70;99.90;;;;;;5049591;28;20508;-71
2022/08/19 12:38:41;;;;;;;11.55;7.60;;;25.80;99.90;;;;;;5050604;28;20021;-70
2022/08/19 12:41:09;;;;;;;9.93;7.57;;;25.80;99.90;;;;;;5041291;28;20050;-71
2022/08/19 12:43:35;;;;;;;9.65;6.70;;;25.90;99.90;;;;;;5045473;28;20036;-71
2022/08/19 12:46:01;;;;;;;9.38;6.97;;;26.00;99.90;;;;;;5029019;28;20465;-71
2022/08/19 12:48:27;;;;;;;8.40;6.95;;;26.10;99.90;;;;;;5041809;28;20033;-70
2022/08/19 12:50:53;;;;;;;9.60;6.75;;;26.10;99.90;;;;;;5028189;28;20533;-71
2022/08/19 12:53:19;;;;;;;10.68;6.63;;;26.20;99.90;;;;;;5040941;28;20024;-70
2022/08/19 12:55:45;;;;;;;7.72;6.47;;;26.30;99.90;;;;;;5039705;28;20025;-71
2022/08/19 12:58:12;;;;;;;7.88;6.63;;;26.30;99.90;;;;;;5049182;28;20380;-70